sensor_id;sensor_type;location;lat;lon;timestamp;temperature;humidity
71175;DHT22;58876;51.994;4.472;2023-08-31T00:01:49;14.87;82.95
71175;DHT22;58876;51.994;4.472;2023-08-31T00:04:14;14.78;83.40
71175;DHT22;58876;51.994;4.472;2023-08-31T00:06:43;14.61;83.37
71175;DHT22;58876;51.994;4.472;2023-08-31T00:09:11;14.59;83.74
71175;DHT22;58876;51.994;4.472;2023-08-31T00:11:37;14.70;83.58
71175;DHT22;58876;51.994;4.472;2023-08-31T00:14:03;14.81;83.56
71175;DHT22;58876;51.994;4.472;2023-08-31T00:16:30;14.41;83.12
71175;DHT22;58876;51.994;4.472;2023-08-31T00:18:58;14.50;83.95
71175;DHT22;58876;51.994;4.472;2023-08-31T00:21:24;14.67;83.65
71175;DHT22;58876;51.994;4.472;2023-08-31T00:23:50;14.65;82.89
71175;DHT22;58876;51.994;4.472;2023-08-31T00:26:15;14.34;82.34
71175;DHT22;58876;51.994;4.472;2023-08-31T00:28:41;14.33;83.05
71175;DHT22;58876;51.994;4.472;2023-08-31T00:31:08;14.32;82.85
71175;DHT22;58876;51.994;4.472;2023-08-31T00:33:34;14.25;82.91
71175;DHT22;58876;51.994;4.472;2023-08-31T00:36:03;14.16;82.79
71175;DHT22;58876;51.994;4.472;2023-08-31T00:38:29;14.19;82.84
71175;DHT22;58876;51.994;4.472;2023-08-31T00:40:56;14.17;82.76
71175;DHT22;58876;51.994;4.472;2023-08-31T00:43:21;14.16;82.45
71175;DHT22;58876;51.994;4.472;2023-08-31T00:45:56;14.12;82.50
71175;DHT22;58876;51.994;4.472;2023-08-31T00:48:24;14.19;82.12
71175;DHT22;58876;51.994;4.472;2023-08-31T00:50:50;14.25;81.42
71175;DHT22;58876;51.994;4.472;2023-08-31T00:53:17;14.20;81.25
71175;DHT22;58876;51.994;4.472;2023-08-31T00:55:44;14.22;80.88
71175;DHT22;58876;51.994;4.472;2023-08-31T00:58:10;14.10;80.66
71175;DHT22;58876;51.994;4.472;2023-08-31T01:00:58;14.06;80.32
71175;DHT22;58876;51.994;4.472;2023-08-31T01:09:50;14.01;80.08
71175;DHT22;58876;51.994;4.472;2023-08-31T01:12:37;14.05;79.66
71175;DHT22;58876;51.994;4.472;2023-08-31T01:15:10;14.05;79.69
71175;DHT22;58876;51.994;4.472;2023-08-31T01:17:40;14.08;80.13
71175;DHT22;58876;51.994;4.472;2023-08-31T01:20:09;13.99;80.69
71175;DHT22;58876;51.994;4.472;2023-08-31T01:22:47;13.95;81.03
71175;DHT22;58876;51.994;4.472;2023-08-31T01:25:13;13.89;81.37
71175;DHT22;58876;51.994;4.472;2023-08-31T01:27:40;13.89;81.17
71175;DHT22;58876;51.994;4.472;2023-08-31T01:30:07;13.89;81.53
71175;DHT22;58876;51.994;4.472;2023-08-31T01:32:34;13.98;81.71
71175;DHT22;58876;51.994;4.472;2023-08-31T01:35:01;14.15;81.20
71175;DHT22;58876;51.994;4.472;2023-08-31T01:37:37;14.23;81.03
71175;DHT22;58876;51.994;4.472;2023-08-31T01:40:17;14.17;81.15
71175;DHT22;58876;51.994;4.472;2023-08-31T01:42:46;14.19;80.87
71175;DHT22;58876;51.994;4.472;2023-08-31T01:45:15;14.17;80.52
71175;DHT22;58876;51.994;4.472;2023-08-31T01:47:42;14.36;80.48
71175;DHT22;58876;51.994;4.472;2023-08-31T01:50:08;14.50;79.95
71175;DHT22;58876;51.994;4.472;2023-08-31T01:52:34;14.56;79.91
71175;DHT22;58876;51.994;4.472;2023-08-31T01:54:59;14.61;80.30
71175;DHT22;58876;51.994;4.472;2023-08-31T01:57:25;14.65;80.01
71175;DHT22;58876;51.994;4.472;2023-08-31T01:59:50;14.75;79.64
71175;DHT22;58876;51.994;4.472;2023-08-31T02:02:16;14.80;79.95
71175;DHT22;58876;51.994;4.472;2023-08-31T02:04:43;14.85;79.92
71175;DHT22;58876;51.994;4.472;2023-08-31T02:07:09;14.89;79.77
71175;DHT22;58876;51.994;4.472;2023-08-31T02:09:34;14.88;79.27
71175;DHT22;58876;51.994;4.472;2023-08-31T02:12:00;14.85;78.61
71175;DHT22;58876;51.994;4.472;2023-08-31T02:14:25;14.73;78.84
71175;DHT22;58876;51.994;4.472;2023-08-31T02:16:51;14.70;79.22
71175;DHT22;58876;51.994;4.472;2023-08-31T02:19:16;14.71;79.41
71175;DHT22;58876;51.994;4.472;2023-08-31T02:21:42;14.70;79.35
71175;DHT22;58876;51.994;4.472;2023-08-31T02:24:07;14.63;79.63
71175;DHT22;58876;51.994;4.472;2023-08-31T02:26:35;14.56;79.71
71175;DHT22;58876;51.994;4.472;2023-08-31T02:29:01;14.56;79.88
71175;DHT22;58876;51.994;4.472;2023-08-31T02:31:26;14.48;79.96
71175;DHT22;58876;51.994;4.472;2023-08-31T02:33:52;14.47;80.12
71175;DHT22;58876;51.994;4.472;2023-08-31T02:36:18;14.40;80.44
71175;DHT22;58876;51.994;4.472;2023-08-31T02:38:46;14.43;80.36
71175;DHT22;58876;51.994;4.472;2023-08-31T02:41:12;14.43;80.29
71175;DHT22;58876;51.994;4.472;2023-08-31T02:43:38;14.41;80.36
71175;DHT22;58876;51.994;4.472;2023-08-31T02:46:04;14.38;80.44
71175;DHT22;58876;51.994;4.472;2023-08-31T02:48:32;14.38;80.26
71175;DHT22;58876;51.994;4.472;2023-08-31T02:50:57;14.34;80.49
71175;DHT22;58876;51.994;4.472;2023-08-31T02:53:29;14.32;80.53
71175;DHT22;58876;51.994;4.472;2023-08-31T02:55:55;14.29;80.59
71175;DHT22;58876;51.994;4.472;2023-08-31T02:58:20;14.32;80.47
71175;DHT22;58876;51.994;4.472;2023-08-31T03:00:46;14.26;80.42
71175;DHT22;58876;51.994;4.472;2023-08-31T03:03:17;14.17;80.40
71175;DHT22;58876;51.994;4.472;2023-08-31T03:05:43;14.16;80.36
71175;DHT22;58876;51.994;4.472;2023-08-31T03:08:09;14.29;80.45
71175;DHT22;58876;51.994;4.472;2023-08-31T03:10:35;14.30;80.14
71175;DHT22;58876;51.994;4.472;2023-08-31T03:13:01;14.16;80.10
71175;DHT22;58876;51.994;4.472;2023-08-31T03:15:26;14.10;80.20
71175;DHT22;58876;51.994;4.472;2023-08-31T03:17:52;14.13;79.94
71175;DHT22;58876;51.994;4.472;2023-08-31T03:20:17;14.17;79.87
71175;DHT22;58876;51.994;4.472;2023-08-31T03:22:43;14.22;79.72
71175;DHT22;58876;51.994;4.472;2023-08-31T03:25:08;14.20;79.37
71175;DHT22;58876;51.994;4.472;2023-08-31T03:27:34;14.08;79.25
71175;DHT22;58876;51.994;4.472;2023-08-31T03:29:59;14.13;79.62
71175;DHT22;58876;51.994;4.472;2023-08-31T03:32:25;14.04;79.28
71175;DHT22;58876;51.994;4.472;2023-08-31T03:34:50;14.01;79.42
71175;DHT22;58876;51.994;4.472;2023-08-31T03:37:16;14.01;79.44
71175;DHT22;58876;51.994;4.472;2023-08-31T03:39:42;13.94;79.12
71175;DHT22;58876;51.994;4.472;2023-08-31T03:42:09;13.99;78.89
71175;DHT22;58876;51.994;4.472;2023-08-31T03:44:35;13.98;78.79
71175;DHT22;58876;51.994;4.472;2023-08-31T03:47:01;13.95;78.66
71175;DHT22;58876;51.994;4.472;2023-08-31T03:49:26;14.02;78.87
71175;DHT22;58876;51.994;4.472;2023-08-31T03:51:52;14.02;78.41
71175;DHT22;58876;51.994;4.472;2023-08-31T03:54:20;14.05;78.59
71175;DHT22;58876;51.994;4.472;2023-08-31T03:56:45;14.06;78.45
71175;DHT22;58876;51.994;4.472;2023-08-31T03:59:12;13.99;78.69
71175;DHT22;58876;51.994;4.472;2023-08-31T04:01:37;14.02;78.60
71175;DHT22;58876;51.994;4.472;2023-08-31T04:04:03;14.09;78.22
71175;DHT22;58876;51.994;4.472;2023-08-31T04:06:29;14.09;77.68
71175;DHT22;58876;51.994;4.472;2023-08-31T04:08:55;14.22;78.14
71175;DHT22;58876;51.994;4.472;2023-08-31T04:11:21;14.30;77.82
71175;DHT22;58876;51.994;4.472;2023-08-31T04:13:47;14.29;77.41
71175;DHT22;58876;51.994;4.472;2023-08-31T04:16:12;14.20;77.35
71175;DHT22;58876;51.994;4.472;2023-08-31T04:18:38;14.13;77.76
71175;DHT22;58876;51.994;4.472;2023-08-31T04:21:03;14.10;77.87
71175;DHT22;58876;51.994;4.472;2023-08-31T04:23:29;14.13;77.69
71175;DHT22;58876;51.994;4.472;2023-08-31T04:25:55;14.10;77.58
71175;DHT22;58876;51.994;4.472;2023-08-31T04:28:23;14.13;78.17
71175;DHT22;58876;51.994;4.472;2023-08-31T04:30:49;14.23;77.53
71175;DHT22;58876;51.994;4.472;2023-08-31T04:33:15;14.26;77.45
71175;DHT22;58876;51.994;4.472;2023-08-31T04:35:41;14.32;77.59
71175;DHT22;58876;51.994;4.472;2023-08-31T04:38:07;14.34;77.40
71175;DHT22;58876;51.994;4.472;2023-08-31T04:40:32;14.40;77.21
71175;DHT22;58876;51.994;4.472;2023-08-31T04:42:57;14.43;76.78
71175;DHT22;58876;51.994;4.472;2023-08-31T04:45:23;14.51;76.72
71175;DHT22;58876;51.994;4.472;2023-08-31T04:47:48;14.48;76.83
71175;DHT22;58876;51.994;4.472;2023-08-31T04:50:16;14.60;76.65
71175;DHT22;58876;51.994;4.472;2023-08-31T04:52:42;14.70;76.28
71175;DHT22;58876;51.994;4.472;2023-08-31T04:55:08;14.74;76.30
71175;DHT22;58876;51.994;4.472;2023-08-31T04:57:34;14.73;76.42
71175;DHT22;58876;51.994;4.472;2023-08-31T04:59:59;14.77;76.05
71175;DHT22;58876;51.994;4.472;2023-08-31T05:02:25;14.78;76.24
71175;DHT22;58876;51.994;4.472;2023-08-31T05:04:51;14.70;75.85
71175;DHT22;58876;51.994;4.472;2023-08-31T05:07:16;14.70;76.24
71175;DHT22;58876;51.994;4.472;2023-08-31T05:09:42;14.75;76.04
71175;DHT22;58876;51.994;4.472;2023-08-31T05:12:08;14.70;75.64
71175;DHT22;58876;51.994;4.472;2023-08-31T05:14:33;14.77;76.01
71175;DHT22;58876;51.994;4.472;2023-08-31T05:17:03;14.81;75.74
71175;DHT22;58876;51.994;4.472;2023-08-31T05:19:30;14.88;75.27
71175;DHT22;58876;51.994;4.472;2023-08-31T05:21:56;14.96;74.93
71175;DHT22;58876;51.994;4.472;2023-08-31T05:24:21;14.99;74.70
71175;DHT22;58876;51.994;4.472;2023-08-31T05:26:47;15.04;74.64
71175;DHT22;58876;51.994;4.472;2023-08-31T05:29:12;14.95;74.66
71175;DHT22;58876;51.994;4.472;2023-08-31T05:31:37;14.99;73.98
71175;DHT22;58876;51.994;4.472;2023-08-31T05:34:03;15.01;74.23
71175;DHT22;58876;51.994;4.472;2023-08-31T05:36:28;15.08;74.00
71175;DHT22;58876;51.994;4.472;2023-08-31T05:38:54;15.09;74.27
71175;DHT22;58876;51.994;4.472;2023-08-31T05:41:19;15.04;74.23
71175;DHT22;58876;51.994;4.472;2023-08-31T05:43:46;14.96;74.65
71175;DHT22;58876;51.994;4.472;2023-08-31T05:46:11;15.02;74.07
71175;DHT22;58876;51.994;4.472;2023-08-31T05:48:37;14.92;74.42
71175;DHT22;58876;51.994;4.472;2023-08-31T05:51:02;14.96;74.56
71175;DHT22;58876;51.994;4.472;2023-08-31T05:53:31;15.11;74.21
71175;DHT22;58876;51.994;4.472;2023-08-31T05:55:57;15.12;74.03
71175;DHT22;58876;51.994;4.472;2023-08-31T05:58:33;15.19;73.98
71175;DHT22;58876;51.994;4.472;2023-08-31T06:00:59;15.16;73.96
71175;DHT22;58876;51.994;4.472;2023-08-31T06:03:25;15.18;73.66
71175;DHT22;58876;51.994;4.472;2023-08-31T06:05:51;15.18;74.11
71175;DHT22;58876;51.994;4.472;2023-08-31T06:08:17;15.21;73.94
71175;DHT22;58876;51.994;4.472;2023-08-31T06:10:42;15.25;73.69
71175;DHT22;58876;51.994;4.472;2023-08-31T06:13:07;15.28;73.62
71175;DHT22;58876;51.994;4.472;2023-08-31T06:15:33;15.38;73.97
71175;DHT22;58876;51.994;4.472;2023-08-31T06:17:58;15.45;73.52
71175;DHT22;58876;51.994;4.472;2023-08-31T06:20:24;15.60;73.48
71175;DHT22;58876;51.994;4.472;2023-08-31T06:22:49;15.74;73.31
71175;DHT22;58876;51.994;4.472;2023-08-31T06:25:15;15.80;72.42
71175;DHT22;58876;51.994;4.472;2023-08-31T06:27:43;15.77;72.26
71175;DHT22;58876;51.994;4.472;2023-08-31T06:30:10;15.84;72.54
71175;DHT22;58876;51.994;4.472;2023-08-31T06:32:42;16.00;72.18
71175;DHT22;58876;51.994;4.472;2023-08-31T06:35:08;16.05;72.19
71175;DHT22;58876;51.994;4.472;2023-08-31T06:37:33;16.11;71.87
71175;DHT22;58876;51.994;4.472;2023-08-31T06:39:59;16.28;72.20
71175;DHT22;58876;51.994;4.472;2023-08-31T06:42:24;16.41;71.72
71175;DHT22;58876;51.994;4.472;2023-08-31T06:44:50;16.56;72.00
71175;DHT22;58876;51.994;4.472;2023-08-31T06:47:16;16.59;70.79
71175;DHT22;58876;51.994;4.472;2023-08-31T06:49:43;16.79;71.26
71175;DHT22;58876;51.994;4.472;2023-08-31T06:52:08;16.97;70.91
71175;DHT22;58876;51.994;4.472;2023-08-31T06:54:35;17.06;70.10
71175;DHT22;58876;51.994;4.472;2023-08-31T06:57:00;17.30;70.00
71175;DHT22;58876;51.994;4.472;2023-08-31T06:59:26;17.55;69.91
71175;DHT22;58876;51.994;4.472;2023-08-31T07:01:51;17.70;68.03
71175;DHT22;58876;51.994;4.472;2023-08-31T07:04:17;17.83;68.17
71175;DHT22;58876;51.994;4.472;2023-08-31T07:06:42;17.91;67.10
71175;DHT22;58876;51.994;4.472;2023-08-31T07:09:08;17.95;67.81
71175;DHT22;58876;51.994;4.472;2023-08-31T07:11:34;18.06;66.20
71175;DHT22;58876;51.994;4.472;2023-08-31T07:13:59;18.02;66.05
71175;DHT22;58876;51.994;4.472;2023-08-31T07:16:25;18.14;64.93
71175;DHT22;58876;51.994;4.472;2023-08-31T07:18:51;18.17;64.04
71175;DHT22;58876;51.994;4.472;2023-08-31T07:21:17;18.50;63.64
71175;DHT22;58876;51.994;4.472;2023-08-31T07:23:42;18.61;63.90
71175;DHT22;58876;51.994;4.472;2023-08-31T07:26:07;18.74;62.44
71175;DHT22;58876;51.994;4.472;2023-08-31T07:28:33;18.94;62.99
71175;DHT22;58876;51.994;4.472;2023-08-31T07:31:06;19.08;63.00
71175;DHT22;58876;51.994;4.472;2023-08-31T07:33:32;19.36;62.87
71175;DHT22;58876;51.994;4.472;2023-08-31T07:36:00;19.43;61.29
71175;DHT22;58876;51.994;4.472;2023-08-31T07:38:27;19.55;59.73
71175;DHT22;58876;51.994;4.472;2023-08-31T07:40:53;19.53;60.25
71175;DHT22;58876;51.994;4.472;2023-08-31T07:43:18;19.88;60.57
71175;DHT22;58876;51.994;4.472;2023-08-31T07:45:44;20.11;58.56
71175;DHT22;58876;51.994;4.472;2023-08-31T07:48:10;20.25;57.98
71175;DHT22;58876;51.994;4.472;2023-08-31T07:50:35;20.77;56.54
71175;DHT22;58876;51.994;4.472;2023-08-31T07:53:01;21.41;54.83
71175;DHT22;58876;51.994;4.472;2023-08-31T07:55:26;21.43;52.59
71175;DHT22;58876;51.994;4.472;2023-08-31T07:57:52;21.58;51.47
71175;DHT22;58876;51.994;4.472;2023-08-31T08:00:18;21.71;51.87
71175;DHT22;58876;51.994;4.472;2023-08-31T08:02:46;22.13;49.76
71175;DHT22;58876;51.994;4.472;2023-08-31T08:05:12;22.30;50.15
71175;DHT22;58876;51.994;4.472;2023-08-31T08:07:37;22.68;51.01
71175;DHT22;58876;51.994;4.472;2023-08-31T08:10:03;22.47;49.71
71175;DHT22;58876;51.994;4.472;2023-08-31T08:12:40;22.33;51.17
71175;DHT22;58876;51.994;4.472;2023-08-31T08:15:06;22.39;50.68
71175;DHT22;58876;51.994;4.472;2023-08-31T08:17:35;22.43;51.18
71175;DHT22;58876;51.994;4.472;2023-08-31T08:20:00;22.42;50.53
71175;DHT22;58876;51.994;4.472;2023-08-31T08:22:26;22.40;50.82
71175;DHT22;58876;51.994;4.472;2023-08-31T08:24:52;22.25;51.21
71175;DHT22;58876;51.994;4.472;2023-08-31T08:27:17;22.54;50.65
71175;DHT22;58876;51.994;4.472;2023-08-31T08:29:45;22.50;49.25
71175;DHT22;58876;51.994;4.472;2023-08-31T08:32:10;22.36;51.78
71175;DHT22;58876;51.994;4.472;2023-08-31T08:34:36;22.59;50.02
71175;DHT22;58876;51.994;4.472;2023-08-31T08:37:02;22.81;49.37
71175;DHT22;58876;51.994;4.472;2023-08-31T08:39:29;22.86;48.45
71175;DHT22;58876;51.994;4.472;2023-08-31T08:41:58;22.73;48.48
71175;DHT22;58876;51.994;4.472;2023-08-31T08:44:32;22.61;47.59
71175;DHT22;58876;51.994;4.472;2023-08-31T08:47:02;22.50;48.18
71175;DHT22;58876;51.994;4.472;2023-08-31T08:49:31;22.56;48.83
71175;DHT22;58876;51.994;4.472;2023-08-31T08:51:58;22.42;48.06
71175;DHT22;58876;51.994;4.472;2023-08-31T08:54:25;21.64;51.65
71175;DHT22;58876;51.994;4.472;2023-08-31T08:56:50;21.89;49.69
71175;DHT22;58876;51.994;4.472;2023-08-31T08:59:16;22.67;49.74
71175;DHT22;58876;51.994;4.472;2023-08-31T09:01:42;22.56;50.28
71175;DHT22;58876;51.994;4.472;2023-08-31T09:04:09;21.94;49.56
71175;DHT22;58876;51.994;4.472;2023-08-31T09:06:35;21.44;51.80
71175;DHT22;58876;51.994;4.472;2023-08-31T09:09:00;21.31;50.75
71175;DHT22;58876;51.994;4.472;2023-08-31T09:11:27;21.24;51.52
71175;DHT22;58876;51.994;4.472;2023-08-31T09:13:53;21.43;52.47
71175;DHT22;58876;51.994;4.472;2023-08-31T09:16:29;21.31;52.48
71175;DHT22;58876;51.994;4.472;2023-08-31T09:18:56;21.22;50.41
71175;DHT22;58876;51.994;4.472;2023-08-31T09:21:22;20.75;50.99
71175;DHT22;58876;51.994;4.472;2023-08-31T09:23:59;20.72;51.60
71175;DHT22;58876;51.994;4.472;2023-08-31T09:26:25;20.89;51.78
71175;DHT22;58876;51.994;4.472;2023-08-31T09:28:57;20.89;51.89
71175;DHT22;58876;51.994;4.472;2023-08-31T09:31:29;21.10;51.95
71175;DHT22;58876;51.994;4.472;2023-08-31T09:33:55;21.22;53.07
71175;DHT22;58876;51.994;4.472;2023-08-31T09:36:20;21.22;51.45
71175;DHT22;58876;51.994;4.472;2023-08-31T09:38:47;21.33;51.09
71175;DHT22;58876;51.994;4.472;2023-08-31T09:41:13;20.80;51.70
71175;DHT22;58876;51.994;4.472;2023-08-31T09:43:38;20.90;51.10
71175;DHT22;58876;51.994;4.472;2023-08-31T09:46:04;21.03;51.71
71175;DHT22;58876;51.994;4.472;2023-08-31T09:48:31;20.79;53.17
71175;DHT22;58876;51.994;4.472;2023-08-31T09:50:57;21.08;52.70
71175;DHT22;58876;51.994;4.472;2023-08-31T09:53:29;21.30;52.84
71175;DHT22;58876;51.994;4.472;2023-08-31T09:55:56;21.62;50.72
71175;DHT22;58876;51.994;4.472;2023-08-31T09:58:22;21.24;50.65
71175;DHT22;58876;51.994;4.472;2023-08-31T10:00:50;20.97;51.08
71175;DHT22;58876;51.994;4.472;2023-08-31T10:03:16;20.99;49.60
71175;DHT22;58876;51.994;4.472;2023-08-31T10:05:46;21.16;50.78
71175;DHT22;58876;51.994;4.472;2023-08-31T10:08:14;21.26;51.72
71175;DHT22;58876;51.994;4.472;2023-08-31T10:10:40;21.30;49.38
71175;DHT22;58876;51.994;4.472;2023-08-31T10:13:07;21.14;50.57
71175;DHT22;58876;51.994;4.472;2023-08-31T10:15:36;21.24;52.09
71175;DHT22;58876;51.994;4.472;2023-08-31T10:18:04;21.19;50.64
71175;DHT22;58876;51.994;4.472;2023-08-31T10:20:31;21.08;49.62
71175;DHT22;58876;51.994;4.472;2023-08-31T10:23:05;21.24;51.95
71175;DHT22;58876;51.994;4.472;2023-08-31T10:28:18;20.77;52.25
71175;DHT22;58876;51.994;4.472;2023-08-31T10:31:00;20.44;52.51
71175;DHT22;58876;51.994;4.472;2023-08-31T10:33:27;20.89;53.72
71175;DHT22;58876;51.994;4.472;2023-08-31T10:35:55;20.58;52.27
71175;DHT22;58876;51.994;4.472;2023-08-31T10:38:32;20.75;52.97
71175;DHT22;58876;51.994;4.472;2023-08-31T10:43:48;21.37;49.91
71175;DHT22;58876;51.994;4.472;2023-08-31T10:46:18;21.20;50.74
71175;DHT22;58876;51.994;4.472;2023-08-31T10:48:59;21.19;50.13
71175;DHT22;58876;51.994;4.472;2023-08-31T10:51:28;21.10;50.62
71175;DHT22;58876;51.994;4.472;2023-08-31T10:54:11;20.82;50.82
71175;DHT22;58876;51.994;4.472;2023-08-31T10:59:26;21.23;49.69
71175;DHT22;58876;51.994;4.472;2023-08-31T11:02:09;21.28;49.25
71175;DHT22;58876;51.994;4.472;2023-08-31T11:04:55;21.43;49.85
71175;DHT22;58876;51.994;4.472;2023-08-31T11:07:25;21.07;49.52
71175;DHT22;58876;51.994;4.472;2023-08-31T11:09:52;21.23;49.84
71175;DHT22;58876;51.994;4.472;2023-08-31T11:12:24;21.45;48.32
71175;DHT22;58876;51.994;4.472;2023-08-31T11:14:50;21.48;50.82
71175;DHT22;58876;51.994;4.472;2023-08-31T11:17:16;21.10;48.75
71175;DHT22;58876;51.994;4.472;2023-08-31T11:19:42;21.16;50.16
71175;DHT22;58876;51.994;4.472;2023-08-31T11:22:07;21.28;48.30
71175;DHT22;58876;51.994;4.472;2023-08-31T11:24:35;21.28;49.20
71175;DHT22;58876;51.994;4.472;2023-08-31T11:27:01;21.06;51.06
71175;DHT22;58876;51.994;4.472;2023-08-31T11:29:29;21.37;48.60
71175;DHT22;58876;51.994;4.472;2023-08-31T11:31:57;21.44;48.48
71175;DHT22;58876;51.994;4.472;2023-08-31T11:34:25;21.62;49.09
71175;DHT22;58876;51.994;4.472;2023-08-31T11:36:51;21.79;48.36
71175;DHT22;58876;51.994;4.472;2023-08-31T11:39:18;21.92;47.72
71175;DHT22;58876;51.994;4.472;2023-08-31T11:41:44;22.06;49.20
71175;DHT22;58876;51.994;4.472;2023-08-31T11:44:13;22.42;46.45
71175;DHT22;58876;51.994;4.472;2023-08-31T11:46:39;22.40;45.67
71175;DHT22;58876;51.994;4.472;2023-08-31T11:49:07;22.36;47.99
71175;DHT22;58876;51.994;4.472;2023-08-31T11:51:39;22.57;47.53
71175;DHT22;58876;51.994;4.472;2023-08-31T11:54:05;22.08;45.32
71175;DHT22;58876;51.994;4.472;2023-08-31T11:56:45;22.10;46.60
71175;DHT22;58876;51.994;4.472;2023-08-31T11:59:18;21.84;46.62
71175;DHT22;58876;51.994;4.472;2023-08-31T12:01:46;22.44;48.96
71175;DHT22;58876;51.994;4.472;2023-08-31T12:04:22;22.84;46.37
71175;DHT22;58876;51.994;4.472;2023-08-31T12:06:51;22.42;45.13
71175;DHT22;58876;51.994;4.472;2023-08-31T12:09:17;22.37;44.23
71175;DHT22;58876;51.994;4.472;2023-08-31T12:11:50;22.35;46.83
71175;DHT22;58876;51.994;4.472;2023-08-31T12:14:24;22.05;45.75
71175;DHT22;58876;51.994;4.472;2023-08-31T12:16:51;21.73;47.46
71175;DHT22;58876;51.994;4.472;2023-08-31T12:19:17;21.55;48.94
71175;DHT22;58876;51.994;4.472;2023-08-31T12:21:45;21.48;49.94
71175;DHT22;58876;51.994;4.472;2023-08-31T12:24:11;21.51;48.55
71175;DHT22;58876;51.994;4.472;2023-08-31T12:26:37;21.48;48.38
71175;DHT22;58876;51.994;4.472;2023-08-31T12:29:03;21.59;48.27
71175;DHT22;58876;51.994;4.472;2023-08-31T12:31:32;21.59;47.37
71175;DHT22;58876;51.994;4.472;2023-08-31T12:33:58;21.66;49.05
71175;DHT22;58876;51.994;4.472;2023-08-31T12:36:25;22.03;48.47
71175;DHT22;58876;51.994;4.472;2023-08-31T12:38:50;21.88;46.26
71175;DHT22;58876;51.994;4.472;2023-08-31T12:41:17;21.81;47.50
71175;DHT22;58876;51.994;4.472;2023-08-31T12:43:42;21.81;48.11
71175;DHT22;58876;51.994;4.472;2023-08-31T12:46:08;22.01;46.62
71175;DHT22;58876;51.994;4.472;2023-08-31T12:48:35;21.88;47.26
71175;DHT22;58876;51.994;4.472;2023-08-31T12:51:00;21.84;46.20
71175;DHT22;58876;51.994;4.472;2023-08-31T12:53:26;22.12;45.44
71175;DHT22;58876;51.994;4.472;2023-08-31T12:55:52;22.19;46.54
71175;DHT22;58876;51.994;4.472;2023-08-31T12:58:18;22.16;46.98
71175;DHT22;58876;51.994;4.472;2023-08-31T13:00:43;21.99;47.08
71175;DHT22;58876;51.994;4.472;2023-08-31T13:03:11;22.03;48.35
71175;DHT22;58876;51.994;4.472;2023-08-31T13:05:41;21.71;46.43
71175;DHT22;58876;51.994;4.472;2023-08-31T13:08:08;21.77;49.22
71175;DHT22;58876;51.994;4.472;2023-08-31T13:10:34;22.05;48.10
71175;DHT22;58876;51.994;4.472;2023-08-31T13:13:00;22.47;47.77
71175;DHT22;58876;51.994;4.472;2023-08-31T13:15:26;22.60;47.54
71175;DHT22;58876;51.994;4.472;2023-08-31T13:17:51;22.86;46.52
71175;DHT22;58876;51.994;4.472;2023-08-31T13:20:17;22.83;45.55
71175;DHT22;58876;51.994;4.472;2023-08-31T13:22:42;22.86;45.71
71175;DHT22;58876;51.994;4.472;2023-08-31T13:25:08;22.83;45.79
71175;DHT22;58876;51.994;4.472;2023-08-31T13:27:34;22.56;45.05
71175;DHT22;58876;51.994;4.472;2023-08-31T13:29:59;22.63;47.84
71175;DHT22;58876;51.994;4.472;2023-08-31T13:32:25;22.84;46.76
71175;DHT22;58876;51.994;4.472;2023-08-31T13:34:51;22.83;45.33
71175;DHT22;58876;51.994;4.472;2023-08-31T13:37:18;22.75;46.45
71175;DHT22;58876;51.994;4.472;2023-08-31T13:39:44;22.77;45.61
71175;DHT22;58876;51.994;4.472;2023-08-31T13:42:09;22.63;46.30
71175;DHT22;58876;51.994;4.472;2023-08-31T13:44:35;22.78;46.59
71175;DHT22;58876;51.994;4.472;2023-08-31T13:47:01;22.64;44.82
71175;DHT22;58876;51.994;4.472;2023-08-31T13:49:29;22.50;44.85
71175;DHT22;58876;51.994;4.472;2023-08-31T13:51:54;22.63;43.97
71175;DHT22;58876;51.994;4.472;2023-08-31T13:54:20;22.86;44.06
71175;DHT22;58876;51.994;4.472;2023-08-31T13:56:45;23.26;45.81
71175;DHT22;58876;51.994;4.472;2023-08-31T13:59:11;23.48;43.81
71175;DHT22;58876;51.994;4.472;2023-08-31T14:01:36;23.19;46.30
71175;DHT22;58876;51.994;4.472;2023-08-31T14:04:03;23.16;45.19
71175;DHT22;58876;51.994;4.472;2023-08-31T14:06:29;22.91;43.71
71175;DHT22;58876;51.994;4.472;2023-08-31T14:08:55;22.60;45.66
71175;DHT22;58876;51.994;4.472;2023-08-31T14:11:21;22.74;44.98
71175;DHT22;58876;51.994;4.472;2023-08-31T14:13:46;22.37;45.73
71175;DHT22;58876;51.994;4.472;2023-08-31T14:16:12;22.16;45.95
71175;DHT22;58876;51.994;4.472;2023-08-31T14:18:37;22.22;47.31
71175;DHT22;58876;51.994;4.472;2023-08-31T14:21:03;22.43;47.59
71175;DHT22;58876;51.994;4.472;2023-08-31T14:23:29;22.36;46.10
71175;DHT22;58876;51.994;4.472;2023-08-31T14:26:01;22.47;46.52
71175;DHT22;58876;51.994;4.472;2023-08-31T14:28:26;22.03;47.48
71175;DHT22;58876;51.994;4.472;2023-08-31T14:30:52;22.26;48.40
71175;DHT22;58876;51.994;4.472;2023-08-31T14:33:17;22.47;46.66
71175;DHT22;58876;51.994;4.472;2023-08-31T14:35:42;22.52;46.14
71175;DHT22;58876;51.994;4.472;2023-08-31T14:38:10;22.59;45.37
71175;DHT22;58876;51.994;4.472;2023-08-31T14:40:38;22.73;46.52
71175;DHT22;58876;51.994;4.472;2023-08-31T14:43:06;22.83;47.66
71175;DHT22;58876;51.994;4.472;2023-08-31T14:45:31;23.12;45.60
71175;DHT22;58876;51.994;4.472;2023-08-31T14:47:57;23.01;46.20
71175;DHT22;58876;51.994;4.472;2023-08-31T14:50:22;22.78;46.92
71175;DHT22;58876;51.994;4.472;2023-08-31T14:52:49;22.88;47.78
71175;DHT22;58876;51.994;4.472;2023-08-31T14:55:14;22.86;48.13
71175;DHT22;58876;51.994;4.472;2023-08-31T14:57:40;22.97;46.23
71175;DHT22;58876;51.994;4.472;2023-08-31T15:00:08;23.19;45.84
71175;DHT22;58876;51.994;4.472;2023-08-31T15:02:34;22.80;44.77
71175;DHT22;58876;51.994;4.472;2023-08-31T15:05:00;22.84;46.77
71175;DHT22;58876;51.994;4.472;2023-08-31T15:07:25;23.04;46.47
71175;DHT22;58876;51.994;4.472;2023-08-31T15:09:52;22.77;45.25
71175;DHT22;58876;51.994;4.472;2023-08-31T15:12:18;22.84;46.20
71175;DHT22;58876;51.994;4.472;2023-08-31T15:14:43;22.90;47.07
71175;DHT22;58876;51.994;4.472;2023-08-31T15:17:09;22.86;46.24
71175;DHT22;58876;51.994;4.472;2023-08-31T15:19:34;22.57;46.61
71175;DHT22;58876;51.994;4.472;2023-08-31T15:22:00;22.54;47.57
71175;DHT22;58876;51.994;4.472;2023-08-31T15:24:25;22.40;47.72
71175;DHT22;58876;51.994;4.472;2023-08-31T15:26:51;22.33;49.04
71175;DHT22;58876;51.994;4.472;2023-08-31T15:29:16;22.78;47.51
71175;DHT22;58876;51.994;4.472;2023-08-31T15:31:42;22.91;46.26
71175;DHT22;58876;51.994;4.472;2023-08-31T15:34:11;23.05;46.20
71175;DHT22;58876;51.994;4.472;2023-08-31T15:36:36;23.07;47.85
71175;DHT22;58876;51.994;4.472;2023-08-31T15:39:02;23.08;46.95
71175;DHT22;58876;51.994;4.472;2023-08-31T15:41:28;23.23;46.48
71175;DHT22;58876;51.994;4.472;2023-08-31T15:43:59;23.16;45.86